createdAt,value
2022-09-07T00:01:01.102Z,17
2022-09-07T00:03:02.594Z,16.9
2022-09-07T00:05:03.990Z,16.9
2022-09-07T00:07:05.442Z,16.9
2022-09-07T00:09:06.962Z,16.8
2022-09-07T00:11:11.740Z,16.7
2022-09-07T00:13:13.198Z,16.7
2022-09-07T00:15:14.661Z,16.7
2022-09-07T00:17:16.124Z,16.6
2022-09-07T00:19:17.632Z,16.6
2022-09-07T00:21:19.055Z,16.6
2022-09-07T00:23:20.600Z,16.5
2022-09-07T00:25:25.351Z,16.5
2022-09-07T00:27:26.775Z,16.5
2022-09-07T00:29:28.272Z,16.5
2022-09-07T00:33:52.771Z,16.5
2022-09-07T00:37:59.036Z,16.4
2022-09-07T00:40:00.590Z,16.5
2022-09-07T00:42:01.973Z,16.5
2022-09-07T00:44:03.452Z,16.5
2022-09-07T00:46:05.059Z,16.5
2022-09-07T00:48:06.408Z,16.4
2022-09-07T00:50:07.887Z,16.3
2022-09-07T00:52:12.649Z,16.3
2022-09-07T00:54:14.131Z,16.3
2022-09-07T00:56:15.601Z,16.3
2022-09-07T00:58:17.085Z,16.3
2022-09-07T01:00:18.576Z,16.3
2022-09-07T01:02:20.247Z,16.2
2022-09-07T01:04:21.470Z,16.2
2022-09-07T01:06:26.260Z,16.1
2022-09-07T01:08:27.736Z,16.1
2022-09-07T01:10:29.208Z,16.1
2022-09-07T01:12:30.675Z,16.2
2022-09-07T01:14:32.147Z,16.2
2022-09-07T01:16:33.627Z,16.2
2022-09-07T01:18:35.154Z,16.1
2022-09-07T01:20:39.902Z,16.1
2022-09-07T01:22:41.393Z,16.1
2022-09-07T01:24:42.852Z,16
2022-09-07T01:25:45.258Z,16
2022-09-07T01:27:46.738Z,16
2022-09-07T01:29:48.253Z,16.1
2022-09-07T01:31:49.712Z,16.1
2022-09-07T01:35:55.973Z,16
2022-09-07T01:37:57.471Z,16
2022-09-07T01:42:00.419Z,16
2022-09-07T01:44:03.472Z,16.1
2022-09-07T01:46:04.966Z,16.1
2022-09-07T01:50:11.206Z,16.1
2022-09-07T01:52:12.704Z,16
2022-09-07T01:56:15.686Z,16
2022-09-07T01:58:17.128Z,16.1
2022-09-07T02:00:18.645Z,16
2022-09-07T02:02:23.546Z,16.1
2022-09-07T02:04:24.911Z,16
2022-09-07T02:06:26.382Z,16
2022-09-07T02:08:27.867Z,16
2022-09-07T02:12:30.873Z,16.1
2022-09-07T02:14:32.343Z,16
2022-09-07T02:16:37.135Z,15.9
2022-09-07T02:18:38.587Z,16
2022-09-07T02:20:40.068Z,16
2022-09-07T02:27:46.899Z,16
2022-09-07T02:33:54.687Z,16
2022-09-07T02:35:56.146Z,16
2022-09-07T02:37:57.655Z,16
2022-09-07T02:39:59.159Z,16
2022-09-07T02:42:00.623Z,16
2022-09-07T02:44:05.422Z,16
2022-09-07T02:50:09.813Z,16
2022-09-07T03:08:26.585Z,16
2022-09-07T03:10:28.006Z,15.9
2022-09-07T03:12:32.794Z,15.8
2022-09-07T03:14:34.251Z,15.8
2022-09-07T03:16:35.750Z,15.8
2022-09-07T03:17:38.137Z,15.8
2022-09-07T03:19:39.629Z,15.9
2022-09-07T03:21:41.108Z,15.9
2022-09-07T03:23:42.584Z,15.9
2022-09-07T03:33:53.290Z,15.7
2022-09-07T03:35:54.771Z,15.7
2022-09-07T03:40:01.062Z,15.7
2022-09-07T03:42:02.538Z,15.7
2022-09-07T03:44:04.006Z,15.7
2022-09-07T03:46:05.599Z,15.6
2022-09-07T03:54:14.728Z,15.6
2022-09-07T03:58:17.713Z,15.5
2022-09-07T04:00:19.168Z,15.5
2022-09-07T04:02:20.711Z,15.5
2022-09-07T04:04:22.160Z,15.4
2022-09-07T04:06:23.628Z,15.4
2022-09-07T04:10:29.910Z,15.3
2022-09-07T04:12:31.371Z,15.3
2022-09-07T04:14:54.358Z,15.3
2022-09-07T04:16:55.896Z,15.3
2022-09-07T04:18:57.296Z,15.4
2022-09-07T04:21:02.093Z,15.5
2022-09-07T04:23:03.566Z,15.5
2022-09-07T04:25:05.043Z,15.6
2022-09-07T04:27:06.536Z,15.6
2022-09-07T04:29:08.057Z,15.7
2022-09-07T04:31:09.622Z,15.7
2022-09-07T04:33:11.635Z,15.7
2022-09-07T04:35:15.789Z,15.8
2022-09-07T04:37:17.258Z,15.8
2022-09-07T04:39:18.768Z,15.9
2022-09-07T04:41:20.239Z,15.9
2022-09-07T04:45:23.188Z,15.9
2022-09-07T04:47:24.707Z,15.9
2022-09-07T04:51:30.946Z,15.9
2022-09-07T04:53:32.447Z,15.9
2022-09-07T04:55:33.910Z,15.9
2022-09-07T04:57:35.406Z,16
2022-09-07T04:59:36.875Z,16
2022-09-07T05:01:38.471Z,16
2022-09-07T05:03:43.133Z,16
2022-09-07T05:05:44.624Z,16
2022-09-07T05:07:46.075Z,16
2022-09-07T05:12:51.449Z,16.1
2022-09-07T05:14:52.922Z,16.1
2022-09-07T05:16:57.775Z,16.2
2022-09-07T05:21:00.655Z,16.2
2022-09-07T05:23:02.148Z,16.3
2022-09-07T05:25:03.635Z,16.2
2022-09-07T05:27:05.149Z,16.2
2022-09-07T05:33:12.860Z,16.3
2022-09-07T05:35:14.301Z,16.4
2022-09-07T05:37:15.760Z,16.4
2022-09-07T05:39:17.240Z,16.4
2022-09-07T05:43:20.235Z,16.4
2022-09-07T05:47:26.419Z,16.5
2022-09-07T05:49:27.943Z,16.6
2022-09-07T05:51:29.519Z,16.6
2022-09-07T05:53:31.014Z,16.6
2022-09-07T05:55:32.477Z,16.7
2022-09-07T05:57:33.915Z,16.7
2022-09-07T05:59:38.694Z,16.8
2022-09-07T06:01:40.254Z,17
2022-09-07T06:03:41.633Z,17
2022-09-07T06:04:44.010Z,17.2
2022-09-07T06:06:59.259Z,17.3
2022-09-07T06:08:46.927Z,17.4
2022-09-07T06:12:53.180Z,17.2
2022-09-07T06:14:54.664Z,17.1
2022-09-07T06:16:56.149Z,17.1
2022-09-07T06:18:57.581Z,17
2022-09-07T06:23:00.534Z,17.1
2022-09-07T06:25:01.992Z,17.1
2022-09-07T06:27:06.730Z,17.1
2022-09-07T06:29:08.185Z,17.1
2022-09-07T06:31:09.640Z,17.1
2022-09-07T06:33:11.107Z,17.1
2022-09-07T06:35:12.586Z,17.1
2022-09-07T06:37:14.027Z,17.2
2022-09-07T06:39:15.499Z,17.1
2022-09-07T06:43:21.674Z,17.2
2022-09-07T06:45:23.188Z,17.3
2022-09-07T06:47:24.596Z,17.4
2022-09-07T06:49:26.063Z,17.4
2022-09-07T06:51:27.476Z,17.4
2022-09-07T06:53:36.847Z,17.4
2022-09-07T06:55:34.327Z,17.6
2022-09-07T06:57:35.199Z,17.8
2022-09-07T06:59:36.660Z,17.9
2022-09-07T07:02:40.517Z,17.6
2022-09-07T07:04:41.961Z,17.6
2022-09-07T07:06:43.390Z,17.7
2022-09-07T07:08:48.092Z,17.8
2022-09-07T07:10:49.588Z,17.8
2022-09-07T07:12:51.069Z,17.9
2022-09-07T07:14:52.471Z,18
2022-09-07T07:16:53.943Z,18.3
2022-09-07T07:18:55.365Z,19
2022-09-07T07:20:56.789Z,18.7
2022-09-07T07:23:01.551Z,18
2022-09-07T07:25:03.098Z,18.1
2022-09-07T07:29:05.927Z,18.1
2022-09-07T07:31:10.401Z,18
2022-09-07T07:33:08.860Z,18.1
2022-09-07T07:35:10.256Z,18.2
2022-09-07T07:37:16.561Z,18.2
2022-09-07T07:43:20.915Z,18.4
2022-09-07T07:47:23.775Z,17.9
2022-09-07T07:51:30.538Z,18.3
2022-09-07T07:53:42.946Z,18.4
2022-09-07T07:55:44.541Z,18.6
2022-09-07T07:57:55.686Z,19.4
2022-09-07T07:59:57.092Z,19.2
2022-09-07T08:01:58.685Z,19
2022-09-07T08:04:03.334Z,19.2
2022-09-07T08:06:04.741Z,19.2
2022-09-07T08:08:06.197Z,19.2
2022-09-07T08:10:07.627Z,19.4
2022-09-07T08:12:09.013Z,19.4
2022-09-07T08:18:16.652Z,19.6
2022-09-07T08:20:18.065Z,19.4
2022-09-07T08:22:19.456Z,20.1
2022-09-07T08:24:20.897Z,20.3
2022-09-07T08:26:22.348Z,20.2
2022-09-07T08:44:38.163Z,23.5
2022-09-07T08:51:47.645Z,22.1
2022-09-07T08:53:49.049Z,22.6
2022-09-07T08:55:50.455Z,21.6
2022-09-07T08:57:51.828Z,21.2
2022-09-07T08:59:56.388Z,22.1
2022-09-07T09:02:27.804Z,22.5
2022-09-07T09:04:18.227Z,24.4
2022-09-07T09:06:00.567Z,25.6
2022-09-07T09:08:01.716Z,25.1
2022-09-07T09:10:02.997Z,24.5
2022-09-07T09:12:04.263Z,24.3
2022-09-07T09:14:08.765Z,25.2
2022-09-07T09:16:10.138Z,25.6
2022-09-07T09:18:14.358Z,25.3
2022-09-07T09:20:12.550Z,23
2022-09-07T09:22:13.821Z,21.8
2022-09-07T09:24:15.073Z,21.2
2022-09-07T09:26:16.383Z,21.3
2022-09-07T09:28:20.956Z,21.5
2022-09-07T09:30:22.233Z,21.7
2022-09-07T09:32:23.508Z,22.3
2022-09-07T09:34:29.430Z,22.1
2022-09-07T09:36:26.244Z,23
2022-09-07T09:38:27.591Z,23.5
2022-09-07T09:40:28.841Z,23.3
2022-09-07T09:44:34.758Z,24.4
2022-09-07T09:47:38.464Z,26.9
2022-09-07T09:49:39.652Z,27.3
2022-09-07T09:53:42.155Z,26.8
2022-09-07T09:55:46.663Z,26.8
2022-09-07T09:59:04.764Z,27.4
2022-09-07T09:59:58.153Z,26.9
2022-09-07T10:05:52.990Z,26.7
2022-09-07T10:07:54.185Z,26.9
2022-09-07T10:09:58.650Z,26.3
2022-09-07T10:12:07.449Z,25.7
2022-09-07T10:14:01.088Z,25.5
2022-09-07T10:30:14.030Z,24.8
2022-09-07T10:32:15.189Z,25.4
2022-09-07T10:36:17.601Z,26
2022-09-07T10:38:22.046Z,25.6
2022-09-07T10:40:23.247Z,25.6
2022-09-07T10:42:24.396Z,25.7
2022-09-07T10:43:26.612Z,25.2
2022-09-07T10:45:27.811Z,24.8
2022-09-07T10:47:29.061Z,24.7
2022-09-07T10:49:30.127Z,24.2
2022-09-07T10:51:34.568Z,23.9
2022-09-07T10:55:36.879Z,25.2
2022-09-07T10:57:38.049Z,25.7
2022-09-07T11:00:07.847Z,25.2
2022-09-07T11:01:40.499Z,24.9
2022-09-07T11:03:41.801Z,25.5
2022-09-07T11:05:46.008Z,25.1
2022-09-07T11:07:47.175Z,24.7
2022-09-07T11:09:48.326Z,24.7
2022-09-07T11:12:03.474Z,24.9
2022-09-07T11:15:51.919Z,25
2022-09-07T11:17:53.408Z,24.8
2022-09-07T11:19:57.413Z,25.5
2022-09-07T11:21:58.589Z,25.5
2022-09-07T11:23:59.739Z,25.3
2022-09-07T11:26:00.927Z,25
2022-09-07T11:28:02.130Z,24.9
2022-09-07T11:30:03.324Z,24.5
2022-09-07T11:32:04.393Z,24.4
2022-09-07T11:34:24.634Z,24.2
2022-09-07T11:36:12.258Z,24.3
2022-09-07T11:38:11.154Z,24.8
2022-09-07T11:40:31.409Z,25.6
2022-09-07T11:42:44.452Z,25.6
2022-09-07T11:44:33.781Z,25
2022-09-07T11:46:38.265Z,25.2
2022-09-07T11:48:39.363Z,25.1
2022-09-07T11:50:40.525Z,25.8
2022-09-07T11:52:41.690Z,26.7
2022-09-07T11:54:42.900Z,25.8
2022-09-07T11:56:45.761Z,26
2022-09-07T12:00:49.593Z,26.4
2022-09-07T12:02:59.272Z,26.4
2022-09-07T12:04:56.189Z,26.3
2022-09-07T12:10:55.361Z,25.8
2022-09-07T12:15:00.868Z,25.9
2022-09-07T12:17:02.038Z,25.5
2022-09-07T12:21:04.340Z,25
2022-09-07T12:23:05.793Z,24.9
2022-09-07T12:25:06.604Z,24.6
2022-09-07T12:27:07.784Z,24.9
2022-09-07T12:36:17.814Z,25
2022-09-07T12:38:19.007Z,25.5
2022-09-07T12:40:20.139Z,26.3
2022-09-07T12:42:32.518Z,27
2022-09-07T12:44:29.232Z,27.3
2022-09-07T12:50:29.124Z,26.6
2022-09-07T12:52:31.552Z,26.3
2022-09-07T12:54:31.431Z,26.6
2022-09-07T12:58:36.941Z,26.8
2022-09-07T13:00:38.094Z,27.5
2022-09-07T13:02:39.242Z,27.4
2022-09-07T13:04:41.155Z,26
2022-09-07T13:07:03.135Z,25.8
2022-09-07T13:08:42.613Z,26.3
2022-09-07T13:10:46.961Z,27
2022-09-07T13:12:57.340Z,27.5
2022-09-07T13:14:49.962Z,28.1
2022-09-07T13:17:16.610Z,28.1
2022-09-07T13:18:52.467Z,27.7
2022-09-07T13:20:53.678Z,27.5
2022-09-07T13:22:53.697Z,28.4
2022-09-07T13:24:59.605Z,29.7
2022-09-07T13:27:00.699Z,29.3
2022-09-07T13:29:01.782Z,28.4
2022-09-07T13:30:04.057Z,29
2022-09-07T13:32:05.110Z,29.8
2022-09-07T13:36:07.305Z,29.6
2022-09-07T13:38:11.668Z,30.2
2022-09-07T13:40:12.814Z,31.2
2022-09-07T13:42:13.820Z,30.8
2022-09-07T13:44:14.939Z,30.7
2022-09-07T13:48:17.114Z,31.9
2022-09-07T13:50:18.191Z,32
2022-09-07T13:52:22.483Z,31
2022-09-07T13:54:23.611Z,31.3
2022-09-07T13:56:24.645Z,32.6
2022-09-07T13:58:25.721Z,32.8
2022-09-07T14:00:26.832Z,30.7
2022-09-07T14:02:27.998Z,29.8
2022-09-07T14:04:28.986Z,29.9
2022-09-07T14:06:33.278Z,28.5
2022-09-07T14:08:39.221Z,28.8
2022-09-07T14:10:35.435Z,29.6
2022-09-07T14:12:36.491Z,29.6
2022-09-07T14:14:37.598Z,28.1
2022-09-07T14:16:38.774Z,27
2022-09-07T14:22:48.346Z,26.6
2022-09-07T14:24:46.385Z,26.8
2022-09-07T14:27:49.530Z,28.4
2022-09-07T14:29:50.646Z,28.8
2022-09-07T14:31:51.788Z,29.5
2022-09-07T14:33:56.091Z,29.2
2022-09-07T14:35:57.213Z,28.2
2022-09-07T14:37:58.320Z,27.1
2022-09-07T14:39:59.492Z,27.1
2022-09-07T14:42:00.514Z,28.1
2022-09-07T14:44:01.668Z,29.3
2022-09-07T14:46:02.775Z,30.3
2022-09-07T14:48:07.155Z,30.7
2022-09-07T14:50:08.804Z,28.9
2022-09-07T14:52:09.348Z,27.3
2022-09-07T14:54:10.472Z,27.1
2022-09-07T14:56:11.568Z,27.9
2022-09-07T14:58:12.686Z,28.1
2022-09-07T15:00:13.776Z,28.5
2022-09-07T15:08:21.579Z,29
2022-09-07T15:10:23.708Z,28.4
2022-09-07T15:12:36.038Z,28.2
2022-09-07T15:14:24.880Z,28.1
2022-09-07T15:16:30.956Z,27.8
2022-09-07T15:22:54.411Z,28
2022-09-07T15:24:55.219Z,27.8
2022-09-07T15:27:03.718Z,27.2
2022-09-07T15:29:11.908Z,26
2022-09-07T15:33:02.741Z,26
2022-09-07T15:35:03.898Z,26
2022-09-07T15:38:01.160Z,26.1
2022-09-07T15:39:06.160Z,27.1
2022-09-07T15:41:23.762Z,28.5
2022-09-07T15:43:19.971Z,28
2022-09-07T15:45:12.823Z,27.5
2022-09-07T15:47:46.159Z,27
2022-09-07T15:49:15.139Z,26.7
2022-09-07T15:55:18.587Z,25.7
2022-09-07T15:57:52.744Z,25.7
2022-09-07T15:59:24.137Z,25.7
2022-09-07T16:01:52.072Z,25.7
2022-09-07T16:03:26.550Z,26
2022-09-07T16:05:30.971Z,26.2
2022-09-07T16:09:29.959Z,26.7
2022-09-07T16:11:35.305Z,26.6
2022-09-07T16:13:35.517Z,26.6
2022-09-07T16:15:36.675Z,26.8
2022-09-07T16:20:41.211Z,28.8
2022-09-07T16:24:46.774Z,30.1
2022-09-07T16:26:47.957Z,30.5
2022-09-07T16:28:49.113Z,30.4
2022-09-07T16:32:51.697Z,29.5
2022-09-07T16:34:52.627Z,28.8
2022-09-07T16:36:53.759Z,28.1
2022-09-07T16:38:58.610Z,27.4
2022-09-07T16:47:02.870Z,25.2
2022-09-07T16:49:04.023Z,25.3
2022-09-07T16:51:05.210Z,25.6
2022-09-07T16:53:09.620Z,26.9
2022-09-07T16:55:10.761Z,27.1
2022-09-07T16:57:11.964Z,27.1
2022-09-07T16:59:13.134Z,27.4
2022-09-07T17:01:14.390Z,27
2022-09-07T17:03:15.521Z,26.3
2022-09-07T17:05:16.700Z,25.7
2022-09-07T17:07:21.146Z,25.2
2022-09-07T17:09:22.315Z,25.1
2022-09-07T17:11:23.560Z,25.3
2022-09-07T17:12:25.762Z,25.5
2022-09-07T17:14:26.935Z,25.4
2022-09-07T17:16:28.275Z,25.2
2022-09-07T17:20:33.860Z,23.8
2022-09-07T17:22:35.099Z,23.7
2022-09-07T17:24:36.298Z,23.6
2022-09-07T17:26:37.556Z,23.4
2022-09-07T17:28:38.765Z,23.1
2022-09-07T17:30:40.087Z,23
2022-09-07T17:32:41.396Z,22.8
2022-09-07T17:34:45.738Z,22.4
2022-09-07T17:36:46.960Z,22.3
2022-09-07T17:39:16.244Z,22.2
2022-09-07T17:40:49.454Z,22.2
2022-09-07T17:46:53.206Z,23.4
2022-09-07T17:48:57.683Z,22.8
2022-09-07T17:50:58.958Z,22.6
2022-09-07T17:53:00.272Z,22.2
2022-09-07T17:55:01.541Z,21.9
2022-09-07T17:57:02.782Z,21.6
2022-09-07T18:01:05.532Z,21
2022-09-07T18:03:09.945Z,20.8
2022-09-07T18:05:11.244Z,20.7
2022-09-07T18:07:12.569Z,20.6
2022-09-07T18:08:14.858Z,20.4
2022-09-07T18:10:16.166Z,20.4
2022-09-07T18:12:17.439Z,20.2
2022-09-07T18:14:18.790Z,20
2022-09-07T18:16:23.506Z,20
2022-09-07T18:18:24.877Z,20
2022-09-07T18:20:26.186Z,19.9
2022-09-07T18:22:27.613Z,19.8
2022-09-07T18:24:29.008Z,19.8
2022-09-07T18:26:30.301Z,19.7
2022-09-07T18:30:36.275Z,19.6
2022-09-07T18:32:37.538Z,19.5
2022-09-07T18:34:40.764Z,19.4
2022-09-07T18:36:40.193Z,19.3
2022-09-07T18:38:41.559Z,19.2
2022-09-07T18:40:42.974Z,19.2
2022-09-07T18:42:44.410Z,19
2022-09-07T18:50:53.115Z,18.9
2022-09-07T18:52:59.112Z,18.8
2022-09-07T18:54:55.780Z,18.7
2022-09-07T18:56:58.150Z,18.5
2022-09-07T18:59:01.799Z,18.2
2022-09-07T19:01:03.311Z,18.1
2022-09-07T19:03:04.589Z,18
2022-09-07T19:05:51.049Z,17.9
2022-09-07T19:07:29.886Z,17.8
2022-09-07T19:09:30.277Z,17.8
2022-09-07T19:11:34.950Z,17.8
2022-09-07T19:17:40.718Z,17.9
2022-09-07T19:19:42.164Z,17.8
2022-09-07T19:21:43.640Z,17.9
2022-09-07T19:25:49.867Z,17.6
2022-09-07T19:29:52.776Z,17.2
2022-09-07T19:31:54.263Z,17.1
2022-09-07T19:33:55.723Z,16.9
2022-09-07T19:35:57.136Z,16.9
2022-09-07T19:37:58.611Z,16.9
2022-09-07T19:40:03.447Z,17
2022-09-07T19:42:04.830Z,17
2022-09-07T19:44:06.359Z,17
2022-09-07T19:46:07.792Z,17
2022-09-07T19:54:16.993Z,16.4
2022-09-07T19:56:18.464Z,16.4
2022-09-07T19:58:19.964Z,16.3
2022-09-07T20:05:26.773Z,16.3
2022-09-07T20:09:33.066Z,16.2
2022-09-07T20:11:34.513Z,16.1
2022-09-07T20:13:36.015Z,16.1
2022-09-07T20:15:37.479Z,16.2
2022-09-07T20:17:38.999Z,16.3
2022-09-07T20:25:48.203Z,16.2
2022-09-07T20:27:49.702Z,16.1
2022-09-07T20:29:51.213Z,16.1
2022-09-07T20:31:52.713Z,16.3
2022-09-07T20:33:54.113Z,16.3
2022-09-07T20:35:58.919Z,16.3
2022-09-07T20:38:00.410Z,16.2
2022-09-07T20:42:03.383Z,16
2022-09-07T20:44:04.900Z,15.8
2022-09-07T20:46:06.350Z,15.7
2022-09-07T20:48:07.839Z,15.6
2022-09-07T20:50:12.644Z,15.5
2022-09-07T20:52:14.123Z,15.4
2022-09-07T20:54:15.595Z,15.3
2022-09-07T20:55:18.011Z,15.3
2022-09-07T20:59:20.975Z,15.4
2022-09-07T21:01:22.520Z,15.4
2022-09-07T21:05:28.750Z,15.3
2022-09-07T21:07:30.283Z,15.4
2022-09-07T21:09:31.730Z,15.4
2022-09-07T21:11:33.204Z,15.4
2022-09-07T21:13:34.710Z,15.4
2022-09-07T21:15:36.208Z,15.4
2022-09-07T21:17:40.990Z,15.2
2022-09-07T21:19:42.490Z,15.2
2022-09-07T21:21:44.009Z,15.1
2022-09-07T21:23:45.474Z,15.1
2022-09-07T21:25:46.957Z,15.1
2022-09-07T21:27:48.442Z,15.1
2022-09-07T21:29:49.967Z,15
2022-09-07T21:31:54.821Z,14.9
2022-09-07T21:33:56.246Z,14.9
2022-09-07T21:44:03.702Z,15.1
2022-09-07T21:46:08.718Z,15.1
2022-09-07T21:48:10.007Z,15
2022-09-07T21:50:11.510Z,14.8
2022-09-07T21:51:13.917Z,14.8
2022-09-07T21:53:15.391Z,14.9
2022-09-07T21:55:16.928Z,15.1
2022-09-07T21:57:18.415Z,15
2022-09-07T21:59:23.220Z,15
2022-09-07T22:01:24.807Z,15
2022-09-07T22:05:27.684Z,15.1
2022-09-07T22:07:29.184Z,15.2
2022-09-07T22:09:30.691Z,15.3
2022-09-07T22:13:36.989Z,15.3
2022-09-07T22:15:38.466Z,15.3
2022-09-07T22:17:44.412Z,15.3
2022-09-07T22:19:41.419Z,15.3
2022-09-07T22:21:42.985Z,15.2
2022-09-07T22:23:44.442Z,15.1
2022-09-07T22:29:52.174Z,15
2022-09-07T22:31:53.716Z,14.9
2022-09-07T22:33:55.110Z,14.9
2022-09-07T22:37:58.120Z,14.8
2022-09-07T22:39:59.671Z,14.8
2022-09-07T22:42:04.396Z,14.8
2022-09-07T22:44:05.952Z,14.8
2022-09-07T22:46:07.441Z,14.9
2022-09-07T22:48:36.252Z,15
2022-09-07T22:50:37.731Z,15
2022-09-07T22:52:39.205Z,15
2022-09-07T22:54:43.995Z,15.1
2022-09-07T22:56:45.470Z,15.1
2022-09-07T22:58:46.975Z,15.2
2022-09-07T23:00:48.474Z,15.3
2022-09-07T23:02:49.988Z,15.4
2022-09-07T23:04:51.580Z,15.4
2022-09-07T23:06:52.948Z,15.4
2022-09-07T23:08:57.773Z,15.4
2022-09-07T23:10:59.220Z,15.4
2022-09-07T23:13:00.733Z,15.4
2022-09-07T23:15:02.201Z,15.5
2022-09-07T23:17:03.719Z,15.4
2022-09-07T23:19:05.228Z,15.4
2022-09-07T23:21:06.704Z,15.4
2022-09-07T23:23:11.518Z,15.4
2022-09-07T23:25:12.965Z,15.4
2022-09-07T23:27:14.466Z,15.4
2022-09-07T23:29:15.955Z,15.3
2022-09-07T23:37:25.270Z,15.4
2022-09-07T23:41:28.179Z,15.5
2022-09-07T23:42:30.624Z,15.6
2022-09-07T23:44:32.101Z,15.6
2022-09-07T23:46:33.625Z,15.6
2022-09-07T23:48:35.055Z,15.6
2022-09-07T23:50:39.850Z,15.7
2022-09-07T23:52:41.356Z,15.7
2022-09-07T23:54:42.808Z,15.7
2022-09-07T23:56:44.293Z,15.7
2022-09-07T23:58:45.776Z,15.7
